sensor_id;sensor_type;location;lat;lon;timestamp;P1;durP1;ratioP1;P2;durP2;ratioP2
323;SDS011;149;51.094;17.002;2023-05-07T00:00:13;6.13;;;5.63;;
323;SDS011;149;51.094;17.002;2023-05-07T00:02:45;7.38;;;5.15;;
323;SDS011;149;51.094;17.002;2023-05-07T00:05:16;7.30;;;5.32;;
323;SDS011;149;51.094;17.002;2023-05-07T00:07:45;9.38;;;6.43;;
323;SDS011;149;51.094;17.002;2023-05-07T00:10:12;10.15;;;6.15;;
323;SDS011;149;51.094;17.002;2023-05-07T00:12:40;8.27;;;6.13;;
323;SDS011;149;51.094;17.002;2023-05-07T00:15:07;6.85;;;6.15;;
323;SDS011;149;51.094;17.002;2023-05-07T00:17:35;7.47;;;6.85;;
323;SDS011;149;51.094;17.002;2023-05-07T00:20:02;6.35;;;5.75;;
323;SDS011;149;51.094;17.002;2023-05-07T00:22:30;7.60;;;6.68;;
323;SDS011;149;51.094;17.002;2023-05-07T00:24:58;7.47;;;6.82;;
323;SDS011;149;51.094;17.002;2023-05-07T00:27:26;5.85;;;5.15;;
323;SDS011;149;51.094;17.002;2023-05-07T00:29:53;7.57;;;6.18;;
323;SDS011;149;51.094;17.002;2023-05-07T00:32:20;7.05;;;6.13;;
323;SDS011;149;51.094;17.002;2023-05-07T00:34:47;7.07;;;6.35;;
323;SDS011;149;51.094;17.002;2023-05-07T00:37:14;5.88;;;5.28;;
323;SDS011;149;51.094;17.002;2023-05-07T00:39:42;6.13;;;5.50;;
323;SDS011;149;51.094;17.002;2023-05-07T00:42:10;7.03;;;6.43;;
323;SDS011;149;51.094;17.002;2023-05-07T00:44:40;6.45;;;5.40;;
323;SDS011;149;51.094;17.002;2023-05-07T00:47:08;5.88;;;5.38;;
323;SDS011;149;51.094;17.002;2023-05-07T00:49:43;6.55;;;5.85;;
323;SDS011;149;51.094;17.002;2023-05-07T00:52:15;7.38;;;5.43;;
323;SDS011;149;51.094;17.002;2023-05-07T00:54:43;11.85;;;6.00;;
323;SDS011;149;51.094;17.002;2023-05-07T00:57:10;6.55;;;5.85;;
323;SDS011;149;51.094;17.002;2023-05-07T00:59:37;6.82;;;5.78;;
323;SDS011;149;51.094;17.002;2023-05-07T01:02:06;7.65;;;7.00;;
323;SDS011;149;51.094;17.002;2023-05-07T01:04:33;5.88;;;5.35;;
323;SDS011;149;51.094;17.002;2023-05-07T01:07:00;5.50;;;5.00;;
323;SDS011;149;51.094;17.002;2023-05-07T01:09:28;6.45;;;5.93;;
323;SDS011;149;51.094;17.002;2023-05-07T01:11:57;7.60;;;5.65;;
323;SDS011;149;51.094;17.002;2023-05-07T01:14:28;6.25;;;5.65;;
323;SDS011;149;51.094;17.002;2023-05-07T01:16:57;8.60;;;7.20;;
323;SDS011;149;51.094;17.002;2023-05-07T01:19:25;8.65;;;6.40;;
323;SDS011;149;51.094;17.002;2023-05-07T01:21:53;6.05;;;5.43;;
323;SDS011;149;51.094;17.002;2023-05-07T01:24:28;7.68;;;6.93;;
323;SDS011;149;51.094;17.002;2023-05-07T01:26:56;8.45;;;5.88;;
323;SDS011;149;51.094;17.002;2023-05-07T01:29:24;7.78;;;6.55;;
323;SDS011;149;51.094;17.002;2023-05-07T01:31:50;8.57;;;7.72;;
323;SDS011;149;51.094;17.002;2023-05-07T01:34:19;7.95;;;7.18;;
323;SDS011;149;51.094;17.002;2023-05-07T01:36:48;11.15;;;8.32;;
323;SDS011;149;51.094;17.002;2023-05-07T01:39:16;8.55;;;7.70;;
323;SDS011;149;51.094;17.002;2023-05-07T01:41:43;9.95;;;7.25;;
323;SDS011;149;51.094;17.002;2023-05-07T01:44:10;7.88;;;7.10;;
323;SDS011;149;51.094;17.002;2023-05-07T01:46:40;8.77;;;7.97;;
323;SDS011;149;51.094;17.002;2023-05-07T01:49:06;7.95;;;7.22;;
323;SDS011;149;51.094;17.002;2023-05-07T01:51:36;8.38;;;7.57;;
323;SDS011;149;51.094;17.002;2023-05-07T01:54:03;7.30;;;6.60;;
323;SDS011;149;51.094;17.002;2023-05-07T01:56:30;7.80;;;7.10;;
323;SDS011;149;51.094;17.002;2023-05-07T01:58:57;7.80;;;6.90;;
323;SDS011;149;51.094;17.002;2023-05-07T02:01:24;7.60;;;6.90;;
323;SDS011;149;51.094;17.002;2023-05-07T02:03:51;7.78;;;6.88;;
323;SDS011;149;51.094;17.002;2023-05-07T02:06:20;15.43;;;7.65;;
323;SDS011;149;51.094;17.002;2023-05-07T02:08:47;7.80;;;7.10;;
323;SDS011;149;51.094;17.002;2023-05-07T02:11:14;8.05;;;7.35;;
323;SDS011;149;51.094;17.002;2023-05-07T02:13:41;9.45;;;8.55;;
323;SDS011;149;51.094;17.002;2023-05-07T02:16:08;7.10;;;6.40;;
323;SDS011;149;51.094;17.002;2023-05-07T02:18:37;7.22;;;6.50;;
323;SDS011;149;51.094;17.002;2023-05-07T02:21:04;7.35;;;6.65;;
323;SDS011;149;51.094;17.002;2023-05-07T02:23:31;6.53;;;5.93;;
323;SDS011;149;51.094;17.002;2023-05-07T02:25:58;7.85;;;5.75;;
323;SDS011;149;51.094;17.002;2023-05-07T02:28:25;6.70;;;5.50;;
323;SDS011;149;51.094;17.002;2023-05-07T02:30:53;7.40;;;6.70;;
323;SDS011;149;51.094;17.002;2023-05-07T02:33:20;6.00;;;5.40;;
323;SDS011;149;51.094;17.002;2023-05-07T02:35:47;5.95;;;5.35;;
323;SDS011;149;51.094;17.002;2023-05-07T02:38:14;8.07;;;6.38;;
323;SDS011;149;51.094;17.002;2023-05-07T02:40:41;8.27;;;6.63;;
323;SDS011;149;51.094;17.002;2023-05-07T02:43:08;6.07;;;5.20;;
323;SDS011;149;51.094;17.002;2023-05-07T02:45:35;7.35;;;6.70;;
323;SDS011;149;51.094;17.002;2023-05-07T02:48:04;7.88;;;6.72;;
323;SDS011;149;51.094;17.002;2023-05-07T02:50:34;6.55;;;5.95;;
323;SDS011;149;51.094;17.002;2023-05-07T02:53:01;9.73;;;7.47;;
323;SDS011;149;51.094;17.002;2023-05-07T02:55:28;8.18;;;6.20;;
323;SDS011;149;51.094;17.002;2023-05-07T02:57:57;6.10;;;5.50;;
323;SDS011;149;51.094;17.002;2023-05-07T03:00:24;6.70;;;6.00;;
323;SDS011;149;51.094;17.002;2023-05-07T03:02:54;8.15;;;6.18;;
323;SDS011;149;51.094;17.002;2023-05-07T03:05:21;8.75;;;6.43;;
323;SDS011;149;51.094;17.002;2023-05-07T03:07:48;6.38;;;5.75;;
323;SDS011;149;51.094;17.002;2023-05-07T03:10:15;6.72;;;6.10;;
323;SDS011;149;51.094;17.002;2023-05-07T03:12:42;8.45;;;7.65;;
323;SDS011;149;51.094;17.002;2023-05-07T03:15:11;6.28;;;5.68;;
323;SDS011;149;51.094;17.002;2023-05-07T03:17:39;6.88;;;6.18;;
323;SDS011;149;51.094;17.002;2023-05-07T03:20:06;9.40;;;7.45;;
323;SDS011;149;51.094;17.002;2023-05-07T03:22:35;8.07;;;6.45;;
323;SDS011;149;51.094;17.002;2023-05-07T03:25:02;6.82;;;5.70;;
323;SDS011;149;51.094;17.002;2023-05-07T03:27:29;8.50;;;6.60;;
323;SDS011;149;51.094;17.002;2023-05-07T03:29:56;6.47;;;5.88;;
323;SDS011;149;51.094;17.002;2023-05-07T03:32:23;6.80;;;6.00;;
323;SDS011;149;51.094;17.002;2023-05-07T03:34:50;7.93;;;6.57;;
323;SDS011;149;51.094;17.002;2023-05-07T03:37:17;9.23;;;6.75;;
323;SDS011;149;51.094;17.002;2023-05-07T03:39:44;8.93;;;6.05;;
323;SDS011;149;51.094;17.002;2023-05-07T03:42:11;7.78;;;6.22;;
323;SDS011;149;51.094;17.002;2023-05-07T03:44:38;7.15;;;5.95;;
323;SDS011;149;51.094;17.002;2023-05-07T03:47:04;10.23;;;5.63;;
323;SDS011;149;51.094;17.002;2023-05-07T03:49:32;5.80;;;5.30;;
323;SDS011;149;51.094;17.002;2023-05-07T03:52:00;5.85;;;5.35;;
323;SDS011;149;51.094;17.002;2023-05-07T03:54:26;5.80;;;5.25;;
323;SDS011;149;51.094;17.002;2023-05-07T03:56:54;5.28;;;4.80;;
323;SDS011;149;51.094;17.002;2023-05-07T03:59:21;5.43;;;5.00;;
323;SDS011;149;51.094;17.002;2023-05-07T04:01:48;7.05;;;5.75;;
323;SDS011;149;51.094;17.002;2023-05-07T04:04:17;6.00;;;5.13;;
323;SDS011;149;51.094;17.002;2023-05-07T04:06:44;5.47;;;4.40;;
323;SDS011;149;51.094;17.002;2023-05-07T04:09:11;4.95;;;4.45;;
323;SDS011;149;51.094;17.002;2023-05-07T04:11:40;11.90;;;5.93;;
323;SDS011;149;51.094;17.002;2023-05-07T04:14:08;6.05;;;5.22;;
323;SDS011;149;51.094;17.002;2023-05-07T04:16:35;6.00;;;4.70;;
323;SDS011;149;51.094;17.002;2023-05-07T04:19:03;5.22;;;4.60;;
323;SDS011;149;51.094;17.002;2023-05-07T04:21:30;6.20;;;4.32;;
323;SDS011;149;51.094;17.002;2023-05-07T04:23:57;6.45;;;4.50;;
323;SDS011;149;51.094;17.002;2023-05-07T04:26:25;4.72;;;4.00;;
323;SDS011;149;51.094;17.002;2023-05-07T04:28:52;5.90;;;4.43;;
323;SDS011;149;51.094;17.002;2023-05-07T04:31:20;5.65;;;5.18;;
323;SDS011;149;51.094;17.002;2023-05-07T04:33:48;6.40;;;4.43;;
323;SDS011;149;51.094;17.002;2023-05-07T04:36:15;5.47;;;5.00;;
323;SDS011;149;51.094;17.002;2023-05-07T04:38:44;6.35;;;5.65;;
323;SDS011;149;51.094;17.002;2023-05-07T04:41:12;5.20;;;4.70;;
323;SDS011;149;51.094;17.002;2023-05-07T04:43:40;7.75;;;5.60;;
323;SDS011;149;51.094;17.002;2023-05-07T04:46:07;4.60;;;4.20;;
323;SDS011;149;51.094;17.002;2023-05-07T04:48:35;4.78;;;4.38;;
323;SDS011;149;51.094;17.002;2023-05-07T04:51:01;4.95;;;4.55;;
323;SDS011;149;51.094;17.002;2023-05-07T04:53:28;5.80;;;5.30;;
323;SDS011;149;51.094;17.002;2023-05-07T04:55:57;4.80;;;4.40;;
323;SDS011;149;51.094;17.002;2023-05-07T04:58:24;6.40;;;5.80;;
323;SDS011;149;51.094;17.002;2023-05-07T05:00:51;5.97;;;4.75;;
323;SDS011;149;51.094;17.002;2023-05-07T05:03:18;4.15;;;3.85;;
323;SDS011;149;51.094;17.002;2023-05-07T05:05:45;5.15;;;4.65;;
323;SDS011;149;51.094;17.002;2023-05-07T05:08:13;4.63;;;4.18;;
323;SDS011;149;51.094;17.002;2023-05-07T05:10:40;4.45;;;4.00;;
323;SDS011;149;51.094;17.002;2023-05-07T05:13:08;5.95;;;4.45;;
323;SDS011;149;51.094;17.002;2023-05-07T05:15:35;4.05;;;3.65;;
323;SDS011;149;51.094;17.002;2023-05-07T05:18:03;5.88;;;3.53;;
323;SDS011;149;51.094;17.002;2023-05-07T05:20:32;4.03;;;3.30;;
323;SDS011;149;51.094;17.002;2023-05-07T05:23:00;3.65;;;3.35;;
323;SDS011;149;51.094;17.002;2023-05-07T05:25:27;3.50;;;3.20;;
323;SDS011;149;51.094;17.002;2023-05-07T05:27:54;4.65;;;4.30;;
323;SDS011;149;51.094;17.002;2023-05-07T05:30:21;4.78;;;4.00;;
323;SDS011;149;51.094;17.002;2023-05-07T05:32:48;4.95;;;4.18;;
323;SDS011;149;51.094;17.002;2023-05-07T05:35:15;4.22;;;3.83;;
323;SDS011;149;51.094;17.002;2023-05-07T05:37:42;5.38;;;4.50;;
323;SDS011;149;51.094;17.002;2023-05-07T05:40:09;3.75;;;3.45;;
323;SDS011;149;51.094;17.002;2023-05-07T05:42:37;3.95;;;3.58;;
323;SDS011;149;51.094;17.002;2023-05-07T05:45:06;4.95;;;4.50;;
323;SDS011;149;51.094;17.002;2023-05-07T05:47:33;5.45;;;4.75;;
323;SDS011;149;51.094;17.002;2023-05-07T05:50:00;5.53;;;4.95;;
323;SDS011;149;51.094;17.002;2023-05-07T05:52:27;4.35;;;3.95;;
323;SDS011;149;51.094;17.002;2023-05-07T05:54:54;4.65;;;4.25;;
323;SDS011;149;51.094;17.002;2023-05-07T05:57:23;4.15;;;3.80;;
323;SDS011;149;51.094;17.002;2023-05-07T05:59:53;4.75;;;4.35;;
323;SDS011;149;51.094;17.002;2023-05-07T06:02:20;4.75;;;4.30;;
323;SDS011;149;51.094;17.002;2023-05-07T06:04:48;4.93;;;4.55;;
323;SDS011;149;51.094;17.002;2023-05-07T06:07:17;6.68;;;4.18;;
323;SDS011;149;51.094;17.002;2023-05-07T06:09:44;5.00;;;4.50;;
323;SDS011;149;51.094;17.002;2023-05-07T06:12:11;5.15;;;3.90;;
323;SDS011;149;51.094;17.002;2023-05-07T06:14:38;4.70;;;4.30;;
323;SDS011;149;51.094;17.002;2023-05-07T06:17:05;4.18;;;3.88;;
323;SDS011;149;51.094;17.002;2023-05-07T06:19:33;4.53;;;4.13;;
323;SDS011;149;51.094;17.002;2023-05-07T06:22:02;6.55;;;3.85;;
323;SDS011;149;51.094;17.002;2023-05-07T06:24:29;7.30;;;6.60;;
323;SDS011;149;51.094;17.002;2023-05-07T06:26:58;4.97;;;4.45;;
323;SDS011;149;51.094;17.002;2023-05-07T06:29:28;3.38;;;3.08;;
323;SDS011;149;51.094;17.002;2023-05-07T06:32:05;5.15;;;3.38;;
323;SDS011;149;51.094;17.002;2023-05-07T06:34:36;8.25;;;4.20;;
323;SDS011;149;51.094;17.002;2023-05-07T06:37:05;3.78;;;3.03;;
323;SDS011;149;51.094;17.002;2023-05-07T06:39:32;2.95;;;2.65;;
323;SDS011;149;51.094;17.002;2023-05-07T06:42:02;4.88;;;3.47;;
323;SDS011;149;51.094;17.002;2023-05-07T06:44:32;3.70;;;3.40;;
323;SDS011;149;51.094;17.002;2023-05-07T06:46:59;3.40;;;3.10;;
323;SDS011;149;51.094;17.002;2023-05-07T06:49:27;5.25;;;3.22;;
323;SDS011;149;51.094;17.002;2023-05-07T06:51:55;3.90;;;3.60;;
323;SDS011;149;51.094;17.002;2023-05-07T06:54:23;5.68;;;4.00;;
323;SDS011;149;51.094;17.002;2023-05-07T06:56:50;3.50;;;3.20;;
323;SDS011;149;51.094;17.002;2023-05-07T06:59:17;3.67;;;3.38;;
323;SDS011;149;51.094;17.002;2023-05-07T07:01:45;4.88;;;3.80;;
323;SDS011;149;51.094;17.002;2023-05-07T07:04:12;4.15;;;3.75;;
323;SDS011;149;51.094;17.002;2023-05-07T07:06:39;4.05;;;3.75;;
323;SDS011;149;51.094;17.002;2023-05-07T07:09:09;4.35;;;3.95;;
323;SDS011;149;51.094;17.002;2023-05-07T07:11:35;4.28;;;3.83;;
323;SDS011;149;51.094;17.002;2023-05-07T07:14:02;3.53;;;3.22;;
323;SDS011;149;51.094;17.002;2023-05-07T07:16:33;3.35;;;3.05;;
323;SDS011;149;51.094;17.002;2023-05-07T07:19:01;3.60;;;3.22;;
323;SDS011;149;51.094;17.002;2023-05-07T07:21:28;3.92;;;3.58;;
323;SDS011;149;51.094;17.002;2023-05-07T07:23:59;4.18;;;3.88;;
323;SDS011;149;51.094;17.002;2023-05-07T07:26:26;2.97;;;2.78;;
323;SDS011;149;51.094;17.002;2023-05-07T07:28:53;3.90;;;3.42;;
323;SDS011;149;51.094;17.002;2023-05-07T07:31:20;7.22;;;3.05;;
323;SDS011;149;51.094;17.002;2023-05-07T07:33:47;2.45;;;2.35;;
323;SDS011;149;51.094;17.002;2023-05-07T07:36:18;2.90;;;2.60;;
323;SDS011;149;51.094;17.002;2023-05-07T07:38:47;5.78;;;3.03;;
323;SDS011;149;51.094;17.002;2023-05-07T07:41:15;2.70;;;2.30;;
323;SDS011;149;51.094;17.002;2023-05-07T07:43:42;2.50;;;2.30;;
323;SDS011;149;51.094;17.002;2023-05-07T07:46:09;2.63;;;2.47;;
323;SDS011;149;51.094;17.002;2023-05-07T07:48:36;3.97;;;2.30;;
323;SDS011;149;51.094;17.002;2023-05-07T07:51:06;2.13;;;2.00;;
323;SDS011;149;51.094;17.002;2023-05-07T07:53:33;2.30;;;2.10;;
323;SDS011;149;51.094;17.002;2023-05-07T07:56:00;3.97;;;2.88;;
323;SDS011;149;51.094;17.002;2023-05-07T07:58:31;4.43;;;2.65;;
323;SDS011;149;51.094;17.002;2023-05-07T08:00:58;5.10;;;3.50;;
323;SDS011;149;51.094;17.002;2023-05-07T08:03:25;3.90;;;2.90;;
323;SDS011;149;51.094;17.002;2023-05-07T08:05:52;2.20;;;2.10;;
323;SDS011;149;51.094;17.002;2023-05-07T08:08:19;5.72;;;2.90;;
323;SDS011;149;51.094;17.002;2023-05-07T08:10:46;3.50;;;3.20;;
323;SDS011;149;51.094;17.002;2023-05-07T08:13:17;5.65;;;4.70;;
323;SDS011;149;51.094;17.002;2023-05-07T08:15:44;4.35;;;3.95;;
323;SDS011;149;51.094;17.002;2023-05-07T08:18:11;5.15;;;4.65;;
323;SDS011;149;51.094;17.002;2023-05-07T08:20:39;4.50;;;4.18;;
323;SDS011;149;51.094;17.002;2023-05-07T08:23:07;6.57;;;4.55;;
323;SDS011;149;51.094;17.002;2023-05-07T08:25:34;5.70;;;4.65;;
323;SDS011;149;51.094;17.002;2023-05-07T08:28:01;5.35;;;4.80;;
323;SDS011;149;51.094;17.002;2023-05-07T08:30:29;4.85;;;3.80;;
323;SDS011;149;51.094;17.002;2023-05-07T08:32:58;4.53;;;4.13;;
323;SDS011;149;51.094;17.002;2023-05-07T08:35:26;5.45;;;4.95;;
323;SDS011;149;51.094;17.002;2023-05-07T08:37:53;5.38;;;4.88;;
323;SDS011;149;51.094;17.002;2023-05-07T08:40:24;4.75;;;4.35;;
323;SDS011;149;51.094;17.002;2023-05-07T08:42:53;6.82;;;5.40;;
323;SDS011;149;51.094;17.002;2023-05-07T08:45:20;7.47;;;5.38;;
323;SDS011;149;51.094;17.002;2023-05-07T08:47:49;7.50;;;4.68;;
323;SDS011;149;51.094;17.002;2023-05-07T08:50:19;5.10;;;4.60;;
323;SDS011;149;51.094;17.002;2023-05-07T08:52:47;5.15;;;4.65;;
323;SDS011;149;51.094;17.002;2023-05-07T08:55:14;4.68;;;4.20;;
323;SDS011;149;51.094;17.002;2023-05-07T08:57:41;6.25;;;5.00;;
323;SDS011;149;51.094;17.002;2023-05-07T09:00:08;5.65;;;5.05;;
323;SDS011;149;51.094;17.002;2023-05-07T09:02:36;6.18;;;5.40;;
323;SDS011;149;51.094;17.002;2023-05-07T09:05:05;5.88;;;5.35;;
323;SDS011;149;51.094;17.002;2023-05-07T09:07:33;6.45;;;5.85;;
323;SDS011;149;51.094;17.002;2023-05-07T09:10:05;8.40;;;6.10;;
323;SDS011;149;51.094;17.002;2023-05-07T09:12:32;8.65;;;7.22;;
323;SDS011;149;51.094;17.002;2023-05-07T09:15:01;8.10;;;6.18;;
323;SDS011;149;51.094;17.002;2023-05-07T09:17:29;6.80;;;6.20;;
323;SDS011;149;51.094;17.002;2023-05-07T09:19:56;5.00;;;4.53;;
323;SDS011;149;51.094;17.002;2023-05-07T09:22:30;5.38;;;4.60;;
323;SDS011;149;51.094;17.002;2023-05-07T09:24:58;4.72;;;4.32;;
323;SDS011;149;51.094;17.002;2023-05-07T09:27:25;6.47;;;5.82;;
323;SDS011;149;51.094;17.002;2023-05-07T09:29:53;5.20;;;4.70;;
323;SDS011;149;51.094;17.002;2023-05-07T09:32:21;6.00;;;5.43;;
323;SDS011;149;51.094;17.002;2023-05-07T09:34:48;6.40;;;5.90;;
323;SDS011;149;51.094;17.002;2023-05-07T09:37:16;4.68;;;4.38;;
323;SDS011;149;51.094;17.002;2023-05-07T09:39:48;4.93;;;4.53;;
323;SDS011;149;51.094;17.002;2023-05-07T09:42:22;10.45;;;5.35;;
323;SDS011;149;51.094;17.002;2023-05-07T09:44:50;7.18;;;4.72;;
323;SDS011;149;51.094;17.002;2023-05-07T09:47:20;4.55;;;4.18;;
323;SDS011;149;51.094;17.002;2023-05-07T09:49:53;9.27;;;4.65;;
323;SDS011;149;51.094;17.002;2023-05-07T09:52:23;5.05;;;4.57;;
323;SDS011;149;51.094;17.002;2023-05-07T09:54:54;5.85;;;5.25;;
323;SDS011;149;51.094;17.002;2023-05-07T09:57:25;6.15;;;5.35;;
323;SDS011;149;51.094;17.002;2023-05-07T09:59:53;7.55;;;6.75;;
323;SDS011;149;51.094;17.002;2023-05-07T10:02:22;6.03;;;5.43;;
323;SDS011;149;51.094;17.002;2023-05-07T10:04:51;8.18;;;6.05;;
323;SDS011;149;51.094;17.002;2023-05-07T10:07:22;7.32;;;4.63;;
323;SDS011;149;51.094;17.002;2023-05-07T10:09:50;6.75;;;5.30;;
323;SDS011;149;51.094;17.002;2023-05-07T10:12:18;5.18;;;4.72;;
323;SDS011;149;51.094;17.002;2023-05-07T10:14:47;5.15;;;4.75;;
323;SDS011;149;51.094;17.002;2023-05-07T10:17:16;5.30;;;4.80;;
323;SDS011;149;51.094;17.002;2023-05-07T10:19:44;4.65;;;4.25;;
323;SDS011;149;51.094;17.002;2023-05-07T10:22:13;7.90;;;4.80;;
323;SDS011;149;51.094;17.002;2023-05-07T10:24:42;5.28;;;4.45;;
323;SDS011;149;51.094;17.002;2023-05-07T10:27:14;4.28;;;3.92;;
323;SDS011;149;51.094;17.002;2023-05-07T10:29:54;4.47;;;4.07;;
323;SDS011;149;51.094;17.002;2023-05-07T10:32:33;4.05;;;3.75;;
323;SDS011;149;51.094;17.002;2023-05-07T10:35:02;4.93;;;4.40;;
323;SDS011;149;51.094;17.002;2023-05-07T10:37:35;4.32;;;3.92;;
323;SDS011;149;51.094;17.002;2023-05-07T10:40:03;4.25;;;3.95;;
323;SDS011;149;51.094;17.002;2023-05-07T10:42:33;5.30;;;4.80;;
323;SDS011;149;51.094;17.002;2023-05-07T10:45:13;3.33;;;3.03;;
323;SDS011;149;51.094;17.002;2023-05-07T10:48:05;5.30;;;4.30;;
323;SDS011;149;51.094;17.002;2023-05-07T10:51:17;3.65;;;3.35;;
323;SDS011;149;51.094;17.002;2023-05-07T10:53:46;3.58;;;3.28;;
323;SDS011;149;51.094;17.002;2023-05-07T10:58:43;3.78;;;3.42;;
323;SDS011;149;51.094;17.002;2023-05-07T11:01:10;4.80;;;3.75;;
323;SDS011;149;51.094;17.002;2023-05-07T11:06:40;3.75;;;3.20;;
323;SDS011;149;51.094;17.002;2023-05-07T11:09:07;3.28;;;2.97;;
323;SDS011;149;51.094;17.002;2023-05-07T11:11:49;3.55;;;3.25;;
323;SDS011;149;51.094;17.002;2023-05-07T11:17:24;7.78;;;3.25;;
323;SDS011;149;51.094;17.002;2023-05-07T11:19:52;4.78;;;3.47;;
323;SDS011;149;51.094;17.002;2023-05-07T11:22:54;4.15;;;3.85;;
323;SDS011;149;51.094;17.002;2023-05-07T11:25:17;4.65;;;3.90;;
323;SDS011;149;51.094;17.002;2023-05-07T11:27:48;3.80;;;3.50;;
323;SDS011;149;51.094;17.002;2023-05-07T11:30:18;4.60;;;4.03;;
323;SDS011;149;51.094;17.002;2023-05-07T11:32:47;3.88;;;3.58;;
323;SDS011;149;51.094;17.002;2023-05-07T11:35:15;6.65;;;6.05;;
323;SDS011;149;51.094;17.002;2023-05-07T11:37:42;4.40;;;3.45;;
323;SDS011;149;51.094;17.002;2023-05-07T11:40:11;7.10;;;3.15;;
323;SDS011;149;51.094;17.002;2023-05-07T11:42:40;4.05;;;3.75;;
323;SDS011;149;51.094;17.002;2023-05-07T11:45:09;4.00;;;3.70;;
323;SDS011;149;51.094;17.002;2023-05-07T11:47:37;4.65;;;4.25;;
323;SDS011;149;51.094;17.002;2023-05-07T11:50:04;3.58;;;3.28;;
323;SDS011;149;51.094;17.002;2023-05-07T11:52:36;3.05;;;2.75;;
323;SDS011;149;51.094;17.002;2023-05-07T11:55:06;5.53;;;4.63;;
323;SDS011;149;51.094;17.002;2023-05-07T11:57:33;3.47;;;2.95;;
323;SDS011;149;51.094;17.002;2023-05-07T12:00:01;3.00;;;2.78;;
323;SDS011;149;51.094;17.002;2023-05-07T12:02:30;3.63;;;3.33;;
323;SDS011;149;51.094;17.002;2023-05-07T12:05:00;3.60;;;3.30;;
323;SDS011;149;51.094;17.002;2023-05-07T12:07:27;5.05;;;3.85;;
323;SDS011;149;51.094;17.002;2023-05-07T12:09:54;3.55;;;3.28;;
323;SDS011;149;51.094;17.002;2023-05-07T12:12:21;5.95;;;3.97;;
323;SDS011;149;51.094;17.002;2023-05-07T12:14:47;3.05;;;2.85;;
323;SDS011;149;51.094;17.002;2023-05-07T12:17:15;4.80;;;4.15;;
323;SDS011;149;51.094;17.002;2023-05-07T12:19:43;4.03;;;3.42;;
323;SDS011;149;51.094;17.002;2023-05-07T12:22:10;2.88;;;2.60;;
323;SDS011;149;51.094;17.002;2023-05-07T12:24:42;5.20;;;3.50;;
323;SDS011;149;51.094;17.002;2023-05-07T12:27:09;4.28;;;3.88;;
323;SDS011;149;51.094;17.002;2023-05-07T12:29:36;4.10;;;3.80;;
323;SDS011;149;51.094;17.002;2023-05-07T12:32:06;4.60;;;3.40;;
323;SDS011;149;51.094;17.002;2023-05-07T12:34:39;4.10;;;3.58;;
323;SDS011;149;51.094;17.002;2023-05-07T12:37:10;5.05;;;3.75;;
323;SDS011;149;51.094;17.002;2023-05-07T12:39:44;4.88;;;4.13;;
323;SDS011;149;51.094;17.002;2023-05-07T12:42:18;3.97;;;3.67;;
323;SDS011;149;51.094;17.002;2023-05-07T12:44:46;4.20;;;3.90;;
323;SDS011;149;51.094;17.002;2023-05-07T12:47:14;3.13;;;2.92;;
323;SDS011;149;51.094;17.002;2023-05-07T12:49:41;5.15;;;3.95;;
323;SDS011;149;51.094;17.002;2023-05-07T12:52:09;3.65;;;3.35;;
323;SDS011;149;51.094;17.002;2023-05-07T12:54:38;3.83;;;3.45;;
323;SDS011;149;51.094;17.002;2023-05-07T12:57:08;3.70;;;3.40;;
323;SDS011;149;51.094;17.002;2023-05-07T12:59:36;4.32;;;3.92;;
323;SDS011;149;51.094;17.002;2023-05-07T13:02:04;8.40;;;3.47;;
323;SDS011;149;51.094;17.002;2023-05-07T13:04:32;4.20;;;3.80;;
323;SDS011;149;51.094;17.002;2023-05-07T13:06:59;3.60;;;3.30;;
323;SDS011;149;51.094;17.002;2023-05-07T13:09:27;7.05;;;4.90;;
323;SDS011;149;51.094;17.002;2023-05-07T13:11:58;4.38;;;3.63;;
323;SDS011;149;51.094;17.002;2023-05-07T13:14:27;4.40;;;4.00;;
323;SDS011;149;51.094;17.002;2023-05-07T13:16:55;4.28;;;3.90;;
323;SDS011;149;51.094;17.002;2023-05-07T13:19:21;4.03;;;3.63;;
323;SDS011;149;51.094;17.002;2023-05-07T13:21:48;4.30;;;3.90;;
323;SDS011;149;51.094;17.002;2023-05-07T13:24:16;5.13;;;4.47;;
323;SDS011;149;51.094;17.002;2023-05-07T13:26:43;5.20;;;4.03;;
323;SDS011;149;51.094;17.002;2023-05-07T13:29:11;5.80;;;4.25;;
323;SDS011;149;51.094;17.002;2023-05-07T13:31:38;5.15;;;4.30;;
323;SDS011;149;51.094;17.002;2023-05-07T13:34:09;4.40;;;3.97;;
323;SDS011;149;51.094;17.002;2023-05-07T13:36:36;4.85;;;4.45;;
323;SDS011;149;51.094;17.002;2023-05-07T13:39:06;4.43;;;4.03;;
323;SDS011;149;51.094;17.002;2023-05-07T13:41:33;5.68;;;4.90;;
323;SDS011;149;51.094;17.002;2023-05-07T13:43:59;3.92;;;3.60;;
323;SDS011;149;51.094;17.002;2023-05-07T13:46:26;5.38;;;4.10;;
323;SDS011;149;51.094;17.002;2023-05-07T13:48:56;3.97;;;3.55;;
323;SDS011;149;51.094;17.002;2023-05-07T13:51:23;3.70;;;3.40;;
323;SDS011;149;51.094;17.002;2023-05-07T13:53:50;4.82;;;3.53;;
323;SDS011;149;51.094;17.002;2023-05-07T13:56:16;3.35;;;3.05;;
323;SDS011;149;51.094;17.002;2023-05-07T13:58:43;3.50;;;3.20;;
323;SDS011;149;51.094;17.002;2023-05-07T14:01:25;3.58;;;3.28;;
323;SDS011;149;51.094;17.002;2023-05-07T14:03:52;3.47;;;3.17;;
323;SDS011;149;51.094;17.002;2023-05-07T14:06:20;4.63;;;4.10;;
323;SDS011;149;51.094;17.002;2023-05-07T14:08:48;3.80;;;3.42;;
323;SDS011;149;51.094;17.002;2023-05-07T14:11:15;4.35;;;3.95;;
323;SDS011;149;51.094;17.002;2023-05-07T14:13:44;4.82;;;3.33;;
323;SDS011;149;51.094;17.002;2023-05-07T14:16:11;4.90;;;4.07;;
323;SDS011;149;51.094;17.002;2023-05-07T14:18:40;4.00;;;3.70;;
323;SDS011;149;51.094;17.002;2023-05-07T14:21:09;3.83;;;2.97;;
323;SDS011;149;51.094;17.002;2023-05-07T14:23:36;4.07;;;3.67;;
323;SDS011;149;51.094;17.002;2023-05-07T14:26:04;3.78;;;3.38;;
323;SDS011;149;51.094;17.002;2023-05-07T14:28:32;4.18;;;3.78;;
323;SDS011;149;51.094;17.002;2023-05-07T14:30:59;3.03;;;2.80;;
323;SDS011;149;51.094;17.002;2023-05-07T14:33:38;4.78;;;3.83;;
323;SDS011;149;51.094;17.002;2023-05-07T14:36:07;4.15;;;3.85;;
323;SDS011;149;51.094;17.002;2023-05-07T14:38:34;4.40;;;4.03;;
323;SDS011;149;51.094;17.002;2023-05-07T14:41:05;3.60;;;3.00;;
323;SDS011;149;51.094;17.002;2023-05-07T14:43:32;4.78;;;3.72;;
323;SDS011;149;51.094;17.002;2023-05-07T14:45:59;4.15;;;3.75;;
323;SDS011;149;51.094;17.002;2023-05-07T14:48:26;3.05;;;2.75;;
323;SDS011;149;51.094;17.002;2023-05-07T14:50:53;4.40;;;3.70;;
323;SDS011;149;51.094;17.002;2023-05-07T14:53:20;4.60;;;4.20;;
323;SDS011;149;51.094;17.002;2023-05-07T14:55:48;3.63;;;3.33;;
323;SDS011;149;51.094;17.002;2023-05-07T14:58:15;3.47;;;3.17;;
323;SDS011;149;51.094;17.002;2023-05-07T15:00:42;3.63;;;3.13;;
323;SDS011;149;51.094;17.002;2023-05-07T15:03:09;4.22;;;3.83;;
323;SDS011;149;51.094;17.002;2023-05-07T15:05:37;4.43;;;3.15;;
323;SDS011;149;51.094;17.002;2023-05-07T15:08:05;4.07;;;3.78;;
323;SDS011;149;51.094;17.002;2023-05-07T15:10:34;3.65;;;3.20;;
323;SDS011;149;51.094;17.002;2023-05-07T15:13:08;3.90;;;3.58;;
323;SDS011;149;51.094;17.002;2023-05-07T15:15:41;3.67;;;3.40;;
323;SDS011;149;51.094;17.002;2023-05-07T15:18:11;4.20;;;3.83;;
323;SDS011;149;51.094;17.002;2023-05-07T15:20:38;4.10;;;3.70;;
323;SDS011;149;51.094;17.002;2023-05-07T15:23:06;4.40;;;3.92;;
323;SDS011;149;51.094;17.002;2023-05-07T15:25:36;3.95;;;3.63;;
323;SDS011;149;51.094;17.002;2023-05-07T15:28:03;4.93;;;3.78;;
323;SDS011;149;51.094;17.002;2023-05-07T15:30:31;4.18;;;3.78;;
323;SDS011;149;51.094;17.002;2023-05-07T15:32:58;3.70;;;3.40;;
323;SDS011;149;51.094;17.002;2023-05-07T15:35:26;5.13;;;3.55;;
323;SDS011;149;51.094;17.002;2023-05-07T15:37:53;4.75;;;4.25;;
323;SDS011;149;51.094;17.002;2023-05-07T15:40:20;4.60;;;4.20;;
323;SDS011;149;51.094;17.002;2023-05-07T15:42:49;3.88;;;3.40;;
323;SDS011;149;51.094;17.002;2023-05-07T15:45:16;4.57;;;4.18;;